createdAt,value
2023-08-26T00:00:22.867Z,100.00
2023-08-26T00:10:28.709Z,100.00
2023-08-26T00:20:33.230Z,100.00
2023-08-26T00:30:35.488Z,100.00
2023-08-26T00:40:37.928Z,100.00
2023-08-26T00:50:41.303Z,100.00
2023-08-26T01:00:49.308Z,100.00
2023-08-26T01:10:53.844Z,100.00
2023-08-26T01:20:58.917Z,100.00
2023-08-26T01:31:04.255Z,100.00
2023-08-26T01:41:07.318Z,100.00
2023-08-26T01:51:09.721Z,100.00
2023-08-26T02:01:14.261Z,100.00
2023-08-26T02:11:21.177Z,100.00
2023-08-26T02:21:27.975Z,100.00
2023-08-26T02:31:32.845Z,100.00
2023-08-26T02:41:37.538Z,100.00
2023-08-26T02:51:39.807Z,100.00
2023-08-26T03:01:43.958Z,100.00
2023-08-26T03:11:49.788Z,100.00
2023-08-26T03:21:52.143Z,100.00
2023-08-26T03:31:55.079Z,100.00
2023-08-26T03:41:57.321Z,100.00
2023-08-26T03:52:07.983Z,100.00
2023-08-26T04:02:10.522Z,100.00
2023-08-26T04:12:14.898Z,100.00
2023-08-26T04:22:17.128Z,100.00
2023-08-26T04:32:21.586Z,100.00
2023-08-26T04:42:29.298Z,100.00
2023-08-26T04:52:34.339Z,100.00
2023-08-26T05:02:36.861Z,100.00
2023-08-26T05:12:39.518Z,100.00
2023-08-26T05:22:44.218Z,100.00
2023-08-26T05:32:46.570Z,100.00
2023-08-26T05:42:49.200Z,94.80
2023-08-26T05:52:51.582Z,89.45
2023-08-26T06:02:55.601Z,82.61
2023-08-26T06:13:04.104Z,78.48
2023-08-26T06:23:09.493Z,76.77
2023-08-26T06:33:16.360Z,75.66
2023-08-26T06:43:19.026Z,73.90
2023-08-26T06:53:24.214Z,72.31
2023-08-26T07:03:28.699Z,70.73
2023-08-26T07:13:30.926Z,71.88
2023-08-26T07:23:33.618Z,70.44
2023-08-26T07:33:36.115Z,69.01
2023-08-26T07:43:40.878Z,70.07
2023-08-26T07:53:45.459Z,67.09
2023-08-26T08:03:53.154Z,66.70
2023-08-26T08:13:57.800Z,65.13
2023-08-26T08:24:03.305Z,65.26
2023-08-26T08:34:05.760Z,64.50
2023-08-26T08:44:14.833Z,63.99
2023-08-26T08:54:17.358Z,62.77
2023-08-26T09:04:19.606Z,61.27
2023-08-26T09:14:24.812Z,58.01
2023-08-26T09:24:27.115Z,58.33
2023-08-26T09:34:34.338Z,58.10
2023-08-26T09:44:38.685Z,55.97
2023-08-26T09:54:42.493Z,54.21
2023-08-26T10:04:50.016Z,54.33
2023-08-26T10:14:55.157Z,54.69
2023-08-26T10:24:57.504Z,53.42
2023-08-26T10:35:06.768Z,54.10
2023-08-26T10:45:18.476Z,55.50
2023-08-26T10:55:32.622Z,57.87
2023-08-26T11:05:43.440Z,60.73
2023-08-26T11:15:45.819Z,62.22
2023-08-26T11:25:50.283Z,61.10
2023-08-26T11:36:08.385Z,58.58
2023-08-26T11:46:12.509Z,58.42
2023-08-26T11:56:17.182Z,57.69
2023-08-26T12:06:20.693Z,56.78
2023-08-26T12:16:28.156Z,57.54
2023-08-26T12:26:33.895Z,57.56
2023-08-26T12:36:36.333Z,58.71
2023-08-26T12:46:40.393Z,57.84
2023-08-26T12:56:46.215Z,55.67
2023-08-26T13:06:48.629Z,54.30
2023-08-26T13:16:53.209Z,54.77
2023-08-26T13:26:58.762Z,55.42
2023-08-26T13:37:04.465Z,56.20
2023-08-26T13:47:09.096Z,55.88
2023-08-26T13:57:12.058Z,55.58
2023-08-26T14:07:18.981Z,55.67
2023-08-26T14:17:21.266Z,56.03
2023-08-26T14:27:26.082Z,56.29
2023-08-26T14:37:36.235Z,56.40
2023-08-26T14:47:41.108Z,57.41
2023-08-26T14:57:45.281Z,57.88
2023-08-26T15:07:50.707Z,58.44
2023-08-26T15:17:54.358Z,60.35
2023-08-26T15:27:59.482Z,63.30
2023-08-26T15:38:04.267Z,65.23
2023-08-26T15:48:10.563Z,67.53
2023-08-26T15:58:22.597Z,67.82
2023-08-26T16:08:30.491Z,69.21
2023-08-26T16:18:35.568Z,69.37
2023-08-26T16:28:39.125Z,69.79
2023-08-26T16:38:45.761Z,69.47
2023-08-26T16:48:53.434Z,71.03
2023-08-26T16:59:00.648Z,72.10
2023-08-26T17:09:07.000Z,72.85
2023-08-26T17:19:11.762Z,73.92
2023-08-26T17:29:16.214Z,72.85
2023-08-26T17:39:20.935Z,73.33
2023-08-26T17:49:28.545Z,75.03
2023-08-26T17:59:34.063Z,76.15
2023-08-26T18:09:42.301Z,77.72
2023-08-26T18:19:52.085Z,78.65
2023-08-26T18:29:59.531Z,79.53
2023-08-26T18:40:01.772Z,79.91
2023-08-26T18:50:07.812Z,81.03
2023-08-26T19:00:17.001Z,81.69
2023-08-26T19:10:19.556Z,82.95
2023-08-26T19:20:25.196Z,84.16
2023-08-26T19:30:29.877Z,87.38
2023-08-26T19:40:37.898Z,88.76
2023-08-26T19:50:42.028Z,90.37
2023-08-26T20:00:48.891Z,91.30
2023-08-26T20:10:53.482Z,91.63
2023-08-26T20:21:05.172Z,92.51
2023-08-26T20:31:12.365Z,94.17
2023-08-26T20:41:15.213Z,96.74
2023-08-26T20:51:18.081Z,98.65
2023-08-26T21:01:24.788Z,99.74
2023-08-26T21:11:30.955Z,100.00
2023-08-26T21:21:37.301Z,100.00
2023-08-26T21:31:47.269Z,100.00
2023-08-26T21:41:52.652Z,100.00
2023-08-26T21:51:56.247Z,100.00
2023-08-26T22:02:02.120Z,100.00
2023-08-26T22:12:09.420Z,100.00
2023-08-26T22:22:19.746Z,100.00
2023-08-26T22:32:28.802Z,100.00
2023-08-26T22:42:35.778Z,100.00
2023-08-26T22:52:41.003Z,100.00
2023-08-26T23:02:55.406Z,100.00
2023-08-26T23:13:00.913Z,100.00
2023-08-26T23:23:06.778Z,100.00
2023-08-26T23:33:11.569Z,100.00
2023-08-26T23:43:20.923Z,100.00
2023-08-26T23:53:23.239Z,100.00
